createdAt,value
2023-03-10T00:00:33.067Z,9.50
2023-03-10T00:01:33.053Z,10.00
2023-03-10T00:02:33.060Z,6.80
2023-03-10T00:03:33.028Z,5.80
2023-03-10T00:04:33.064Z,7.90
2023-03-10T00:05:33.066Z,8.20
2023-03-10T00:06:33.035Z,7.30
2023-03-10T00:07:32.996Z,8.30
2023-03-10T00:08:32.984Z,11.60
2023-03-10T00:09:32.972Z,9.50
2023-03-10T00:10:32.973Z,6.20
2023-03-10T00:11:32.976Z,6.10
2023-03-10T00:12:32.942Z,7.50
2023-03-10T00:13:32.927Z,8.90
2023-03-10T00:14:32.930Z,6.20
2023-03-10T00:15:32.978Z,7.30
2023-03-10T00:16:32.957Z,10.40
2023-03-10T00:17:32.908Z,9.30
2023-03-10T00:18:32.890Z,8.50
2023-03-10T00:19:32.872Z,6.90
2023-03-10T00:20:32.850Z,7.10
2023-03-10T00:21:33.877Z,7.40
2023-03-10T00:22:32.845Z,6.20
2023-03-10T00:23:32.850Z,8.90
2023-03-10T00:24:32.831Z,10.20
2023-03-10T00:25:32.810Z,9.40
2023-03-10T00:26:32.798Z,7.10
2023-03-10T00:27:32.789Z,5.40
2023-03-10T00:28:32.826Z,8.60
2023-03-10T00:29:32.864Z,8.30
2023-03-10T00:30:33.052Z,8.40
2023-03-10T00:31:32.776Z,8.20
2023-03-10T00:32:32.816Z,7.00
2023-03-10T00:33:32.753Z,7.40
2023-03-10T00:34:32.760Z,7.70
2023-03-10T00:35:32.785Z,6.70
2023-03-10T00:36:32.702Z,8.10
2023-03-10T00:37:32.701Z,7.00
2023-03-10T00:38:32.685Z,7.60
2023-03-10T00:39:32.741Z,5.00
2023-03-10T00:40:32.675Z,4.60
2023-03-10T00:41:32.679Z,7.30
2023-03-10T00:42:32.649Z,7.20
2023-03-10T00:43:32.642Z,6.10
2023-03-10T00:44:32.644Z,5.80
2023-03-10T00:45:32.652Z,6.10
2023-03-10T00:46:32.669Z,4.40
2023-03-10T00:47:32.602Z,4.60
2023-03-10T00:48:32.603Z,6.40
2023-03-10T00:49:32.577Z,4.80
2023-03-10T00:50:32.598Z,6.90
2023-03-10T00:51:32.553Z,7.10
2023-03-10T00:52:32.572Z,6.00
2023-03-10T00:53:32.542Z,6.70
2023-03-10T00:54:32.518Z,4.90
2023-03-10T00:55:32.519Z,5.90
2023-03-10T00:56:32.510Z,6.40
2023-03-10T00:57:32.528Z,4.60
2023-03-10T00:58:32.487Z,7.80
2023-03-10T00:59:47.798Z,5.30
2023-03-10T01:00:34.486Z,6.40
2023-03-10T01:01:32.626Z,6.20
2023-03-10T01:02:32.452Z,5.60
2023-03-10T01:03:32.464Z,5.90
2023-03-10T01:04:32.479Z,4.20
2023-03-10T01:05:32.441Z,6.80
2023-03-10T01:06:32.408Z,5.60
2023-03-10T01:07:32.427Z,5.10
2023-03-10T01:08:32.398Z,3.30
2023-03-10T01:09:32.397Z,4.60
2023-03-10T01:10:32.371Z,2.60
2023-03-10T01:11:32.367Z,4.60
2023-03-10T01:12:32.352Z,4.80
2023-03-10T01:13:32.381Z,4.90
2023-03-10T01:14:32.384Z,3.80
2023-03-10T01:15:32.330Z,4.40
2023-03-10T01:16:32.367Z,6.10
2023-03-10T01:17:32.303Z,5.90
2023-03-10T01:18:32.297Z,5.60
2023-03-10T01:19:32.286Z,3.00
2023-03-10T01:20:32.295Z,2.70
2023-03-10T01:21:32.284Z,6.80
2023-03-10T01:22:32.256Z,6.90
2023-03-10T01:23:32.248Z,3.10
2023-03-10T01:24:32.229Z,5.60
2023-03-10T01:25:32.224Z,5.90
2023-03-10T01:26:32.235Z,3.00
2023-03-10T01:27:32.232Z,5.00
2023-03-10T01:28:32.202Z,4.30
2023-03-10T01:29:32.191Z,4.10
2023-03-10T01:30:32.183Z,8.20
2023-03-10T01:32:04.099Z,4.60
2023-03-10T01:32:32.219Z,4.20
2023-03-10T01:33:32.156Z,8.50
2023-03-10T01:34:32.134Z,4.40
2023-03-10T01:35:32.252Z,3.40
2023-03-10T01:36:32.108Z,5.20
2023-03-10T01:37:32.130Z,3.70
2023-03-10T01:38:32.093Z,6.10
2023-03-10T01:39:32.088Z,4.90
2023-03-10T01:40:32.074Z,3.60
2023-03-10T01:41:32.059Z,3.20
2023-03-10T01:42:32.072Z,3.40
2023-03-10T01:43:32.059Z,4.20
2023-03-10T01:44:32.031Z,2.40
2023-03-10T01:45:32.048Z,4.20
2023-03-10T01:46:32.118Z,1.90
2023-03-10T01:47:32.030Z,4.60
2023-03-10T01:48:32.012Z,3.30
2023-03-10T01:49:31.998Z,3.90
2023-03-10T01:50:31.986Z,3.30
2023-03-10T01:51:31.974Z,2.50
2023-03-10T01:52:31.965Z,3.20
2023-03-10T01:53:31.935Z,3.80
2023-03-10T01:54:31.955Z,3.50
2023-03-10T01:55:31.938Z,3.90
2023-03-10T01:56:31.917Z,2.90
2023-03-10T01:57:31.910Z,3.30
2023-03-10T01:58:31.920Z,1.50
2023-03-10T01:59:31.884Z,2.70
2023-03-10T02:00:31.918Z,2.50
2023-03-10T02:01:31.869Z,2.50
2023-03-10T02:02:31.854Z,3.40
2023-03-10T02:03:31.881Z,2.40
2023-03-10T02:04:31.843Z,3.60
2023-03-10T02:05:31.829Z,1.90
2023-03-10T02:06:31.828Z,3.70
2023-03-10T02:07:31.808Z,2.80
2023-03-10T02:08:31.822Z,2.50
2023-03-10T02:09:31.808Z,3.00
2023-03-10T02:10:31.781Z,2.70
2023-03-10T02:11:31.770Z,2.90
2023-03-10T02:12:31.759Z,2.90
2023-03-10T02:13:31.762Z,3.20
2023-03-10T02:14:31.754Z,1.70
2023-03-10T02:15:31.737Z,4.10
2023-03-10T02:16:31.817Z,1.60
2023-03-10T02:17:31.733Z,2.80
2023-03-10T02:18:31.722Z,2.60
2023-03-10T02:19:31.696Z,2.70
2023-03-10T02:20:31.708Z,3.10
2023-03-10T02:21:31.687Z,2.10
2023-03-10T02:22:31.675Z,1.90
2023-03-10T02:23:31.670Z,3.20
2023-03-10T02:24:31.651Z,2.10
2023-03-10T02:25:31.655Z,2.40
2023-03-10T02:26:31.642Z,2.50
2023-03-10T02:27:31.643Z,2.10
2023-03-10T02:28:32.606Z,2.60
2023-03-10T02:29:31.624Z,2.40
2023-03-10T02:30:31.590Z,2.70
2023-03-10T02:31:31.684Z,1.90
2023-03-10T02:32:31.604Z,2.40
2023-03-10T02:33:31.596Z,1.80
2023-03-10T02:34:31.580Z,1.40
2023-03-10T02:35:31.621Z,2.80
2023-03-10T02:36:31.544Z,1.90
2023-03-10T02:37:31.529Z,1.10
2023-03-10T02:38:31.517Z,2.60
2023-03-10T02:39:31.504Z,4.80
2023-03-10T02:40:31.492Z,4.10
2023-03-10T02:41:31.502Z,3.20
2023-03-10T02:42:31.476Z,3.10
2023-03-10T02:43:31.460Z,1.70
2023-03-10T02:44:31.458Z,1.70
2023-03-10T02:45:31.480Z,1.60
2023-03-10T02:46:31.430Z,3.00
2023-03-10T02:47:31.456Z,1.50
2023-03-10T02:48:31.407Z,2.90
2023-03-10T02:49:31.395Z,2.00
2023-03-10T02:50:31.430Z,2.30
2023-03-10T02:51:31.377Z,1.70
2023-03-10T02:52:31.366Z,1.40
2023-03-10T02:53:31.360Z,1.70
2023-03-10T02:54:31.381Z,1.60
2023-03-10T02:55:31.346Z,1.60
2023-03-10T02:56:31.335Z,2.30
2023-03-10T02:57:31.323Z,2.00
2023-03-10T02:58:31.311Z,1.10
2023-03-10T02:59:31.318Z,2.30
2023-03-10T03:00:31.293Z,2.50
2023-03-10T03:01:31.382Z,1.90
2023-03-10T03:02:31.290Z,1.10
2023-03-10T03:03:31.285Z,2.90
2023-03-10T03:04:31.247Z,2.30
2023-03-10T03:05:31.240Z,1.60
2023-03-10T03:06:31.235Z,2.00
2023-03-10T03:07:31.273Z,0.90
2023-03-10T03:08:31.213Z,3.10
2023-03-10T03:09:31.199Z,1.70
2023-03-10T03:10:31.209Z,1.70
2023-03-10T03:11:31.182Z,1.90
2023-03-10T03:12:31.310Z,2.60
2023-03-10T03:13:31.177Z,0.90
2023-03-10T03:14:31.146Z,1.40
2023-03-10T03:15:31.148Z,1.80
2023-03-10T03:16:31.164Z,0.50
2023-03-10T03:17:31.122Z,1.70
2023-03-10T03:18:31.139Z,1.30
2023-03-10T03:19:31.103Z,1.60
2023-03-10T03:20:31.087Z,1.70
2023-03-10T03:21:31.095Z,2.20
2023-03-10T03:22:31.065Z,2.00
2023-03-10T03:23:31.058Z,0.90
2023-03-10T03:24:31.074Z,1.80
2023-03-10T03:25:31.038Z,1.10
2023-03-10T03:26:31.032Z,0.80
2023-03-10T03:27:31.018Z,1.30
2023-03-10T03:28:31.021Z,1.70
2023-03-10T03:29:31.041Z,3.00
2023-03-10T03:30:31.003Z,1.40
2023-03-10T03:31:31.022Z,2.20
2023-03-10T03:32:30.995Z,2.20
2023-03-10T03:33:30.962Z,1.20
2023-03-10T03:34:30.950Z,2.10
2023-03-10T03:35:32.010Z,1.30
2023-03-10T03:36:30.929Z,1.90
2023-03-10T03:37:30.931Z,2.90
2023-03-10T03:38:30.918Z,2.10
2023-03-10T03:39:30.946Z,1.60
2023-03-10T03:40:30.893Z,1.30
2023-03-10T03:41:30.879Z,2.30
2023-03-10T03:42:30.882Z,0.60
2023-03-10T03:43:30.870Z,2.10
2023-03-10T03:44:30.858Z,1.40
2023-03-10T03:45:30.845Z,1.50
2023-03-10T03:46:30.906Z,1.40
2023-03-10T03:47:30.850Z,1.10
2023-03-10T03:48:30.826Z,2.50
2023-03-10T03:49:30.802Z,1.60
2023-03-10T03:50:30.787Z,1.80
2023-03-10T03:51:30.813Z,1.20
2023-03-10T03:52:30.791Z,1.50
2023-03-10T03:53:30.794Z,0.50
2023-03-10T03:54:30.749Z,3.20
2023-03-10T03:55:30.764Z,2.40
2023-03-10T03:56:30.730Z,1.30
2023-03-10T03:57:30.728Z,1.60
2023-03-10T03:58:30.801Z,1.50
2023-03-10T03:59:30.703Z,1.60
2023-03-10T04:00:30.712Z,0.60
2023-03-10T04:01:30.683Z,1.30
2023-03-10T04:02:30.739Z,1.10
2023-03-10T04:03:30.728Z,1.10
2023-03-10T04:04:30.649Z,1.30
2023-03-10T04:05:30.659Z,1.20
2023-03-10T04:06:30.636Z,1.30
2023-03-10T04:07:30.620Z,0.80
2023-03-10T04:08:30.627Z,2.40
2023-03-10T04:09:30.604Z,2.70
2023-03-10T04:10:30.623Z,1.60
2023-03-10T04:11:30.582Z,1.30
2023-03-10T04:12:30.577Z,0.80
2023-03-10T04:13:30.570Z,2.20
2023-03-10T04:14:30.562Z,2.60
2023-03-10T04:15:30.600Z,0.60
2023-03-10T04:16:30.555Z,1.00
2023-03-10T04:17:30.527Z,0.50
2023-03-10T04:18:30.525Z,1.10
2023-03-10T04:19:30.510Z,0.90
2023-03-10T04:20:30.517Z,0.80
2023-03-10T04:21:30.483Z,3.20
2023-03-10T04:22:30.476Z,1.40
2023-03-10T04:23:30.483Z,0.50
2023-03-10T04:24:30.470Z,3.50
2023-03-10T04:25:30.485Z,1.20
2023-03-10T04:26:30.432Z,1.40
2023-03-10T04:27:30.424Z,1.60
2023-03-10T04:28:30.428Z,1.10
2023-03-10T04:29:30.399Z,1.80
2023-03-10T04:30:30.406Z,0.70
2023-03-10T04:31:30.464Z,2.90
2023-03-10T04:32:30.523Z,0.50
2023-03-10T04:33:30.391Z,1.50
2023-03-10T04:34:30.365Z,0.70
2023-03-10T04:35:30.362Z,1.80
2023-03-10T04:36:30.344Z,1.70
2023-03-10T04:37:30.353Z,1.90
2023-03-10T04:38:30.313Z,1.10
2023-03-10T04:39:30.317Z,0.60
2023-03-10T04:40:30.294Z,1.60
2023-03-10T04:41:30.313Z,1.60
2023-03-10T04:42:30.307Z,1.50
2023-03-10T04:43:30.290Z,1.70
2023-03-10T04:44:31.630Z,1.50
2023-03-10T04:45:31.261Z,1.00
2023-03-10T04:46:30.247Z,2.80
2023-03-10T04:47:30.272Z,2.50
2023-03-10T04:48:30.248Z,0.80
2023-03-10T04:49:30.214Z,1.00
2023-03-10T04:50:30.197Z,1.40
2023-03-10T04:51:30.186Z,1.60
2023-03-10T04:52:30.211Z,1.50
2023-03-10T04:53:30.162Z,1.10
2023-03-10T04:54:30.149Z,1.00
2023-03-10T04:55:30.161Z,1.10
2023-03-10T04:56:30.141Z,1.90
2023-03-10T04:57:30.169Z,1.70
2023-03-10T04:58:30.145Z,0.80
2023-03-10T04:59:30.116Z,1.00
2023-03-10T05:00:30.144Z,1.80
2023-03-10T05:01:30.117Z,1.30
2023-03-10T05:02:30.071Z,2.20
2023-03-10T05:03:30.091Z,1.40
2023-03-10T05:04:30.127Z,2.90
2023-03-10T05:05:30.051Z,2.10
2023-03-10T05:06:31.035Z,2.70
2023-03-10T05:07:30.022Z,1.80
2023-03-10T05:08:30.007Z,2.90
2023-03-10T05:09:29.998Z,1.80
2023-03-10T05:10:30.002Z,1.60
2023-03-10T05:11:30.000Z,3.40
2023-03-10T05:12:29.989Z,3.60
2023-03-10T05:13:31.810Z,3.80
2023-03-10T05:14:30.982Z,1.50
2023-03-10T05:15:29.952Z,1.60
2023-03-10T05:16:29.962Z,1.70
2023-03-10T05:17:29.929Z,3.00
2023-03-10T05:18:29.918Z,2.90
2023-03-10T05:19:29.932Z,1.10
2023-03-10T05:20:29.896Z,1.50
2023-03-10T05:21:29.909Z,1.60
2023-03-10T05:22:29.879Z,1.60
2023-03-10T05:23:29.863Z,2.60
2023-03-10T05:24:29.848Z,2.40
2023-03-10T05:25:29.849Z,1.80
2023-03-10T05:26:29.860Z,1.90
2023-03-10T05:27:29.848Z,3.40
2023-03-10T05:28:29.809Z,3.10
2023-03-10T05:29:30.829Z,2.60
2023-03-10T05:30:29.812Z,1.80
2023-03-10T05:31:29.869Z,1.70
2023-03-10T05:32:29.811Z,1.80
2023-03-10T05:33:31.492Z,2.50
2023-03-10T05:34:30.781Z,3.10
2023-03-10T05:35:29.771Z,0.80
2023-03-10T05:36:29.741Z,3.50
2023-03-10T05:37:29.731Z,3.40
2023-03-10T05:38:29.716Z,1.90
2023-03-10T05:39:29.726Z,2.90
2023-03-10T05:40:29.714Z,2.30
2023-03-10T05:41:30.700Z,2.00
2023-03-10T05:42:29.684Z,2.30
2023-03-10T05:43:29.673Z,2.80
2023-03-10T05:44:29.664Z,2.40
2023-03-10T05:45:29.654Z,2.90
2023-03-10T05:46:29.720Z,2.50
2023-03-10T05:47:29.633Z,2.20
2023-03-10T05:48:29.630Z,2.10
2023-03-10T05:49:29.629Z,1.40
2023-03-10T05:50:29.647Z,2.60
2023-03-10T05:51:29.598Z,2.20
2023-03-10T05:52:29.604Z,1.40
2023-03-10T05:53:29.578Z,1.60
2023-03-10T05:54:29.599Z,2.60
2023-03-10T05:55:29.561Z,2.00
2023-03-10T05:56:29.554Z,2.70
2023-03-10T05:57:29.570Z,1.70
2023-03-10T05:58:29.535Z,4.30
2023-03-10T05:59:29.537Z,0.70
2023-03-10T06:00:29.516Z,1.70
2023-03-10T06:01:29.509Z,1.50
2023-03-10T06:02:29.519Z,1.20
2023-03-10T06:03:29.601Z,4.00
2023-03-10T06:04:29.547Z,2.80
2023-03-10T06:05:29.461Z,1.90
2023-03-10T06:06:29.450Z,2.80
2023-03-10T06:07:29.438Z,2.30
2023-03-10T06:08:29.460Z,1.70
2023-03-10T06:09:29.437Z,2.20
2023-03-10T06:10:29.433Z,2.90
2023-03-10T06:11:29.441Z,2.40
2023-03-10T06:12:29.384Z,2.20
2023-03-10T06:13:29.384Z,1.50
2023-03-10T06:14:29.377Z,2.00
2023-03-10T06:15:29.358Z,1.60
2023-03-10T06:16:29.424Z,3.00
2023-03-10T06:17:29.355Z,3.00
2023-03-10T06:18:29.353Z,2.50
2023-03-10T06:19:29.336Z,1.90
2023-03-10T06:20:29.324Z,1.30
2023-03-10T06:21:29.380Z,1.80
2023-03-10T06:22:31.247Z,1.40
2023-03-10T06:23:30.291Z,2.20
2023-03-10T06:24:29.271Z,2.30
2023-03-10T06:25:29.283Z,2.00
2023-03-10T06:26:29.250Z,2.30
2023-03-10T06:27:29.252Z,3.40
2023-03-10T06:28:29.227Z,1.00
2023-03-10T06:29:29.220Z,1.70
2023-03-10T06:30:29.229Z,1.50
2023-03-10T06:31:29.330Z,1.20
2023-03-10T06:32:29.272Z,3.10
2023-03-10T06:33:29.228Z,2.90
2023-03-10T06:34:29.189Z,2.70
2023-03-10T06:35:29.161Z,2.90
2023-03-10T06:36:29.155Z,3.00
2023-03-10T06:37:29.155Z,3.20
2023-03-10T06:38:29.165Z,3.50
2023-03-10T06:39:29.153Z,2.60
2023-03-10T06:40:29.117Z,3.00
2023-03-10T06:41:29.115Z,3.60
2023-03-10T06:42:29.141Z,2.80
2023-03-10T06:43:29.110Z,1.90
2023-03-10T06:44:29.124Z,2.60
2023-03-10T06:45:29.069Z,3.70
2023-03-10T06:46:29.082Z,2.00
2023-03-10T06:47:29.048Z,3.50
2023-03-10T06:48:29.052Z,1.80
2023-03-10T06:49:29.047Z,2.40
2023-03-10T06:50:31.486Z,2.30
2023-03-10T06:51:30.018Z,2.50
2023-03-10T06:52:29.020Z,3.00
2023-03-10T06:53:29.006Z,2.60
2023-03-10T06:54:29.003Z,4.20
2023-03-10T06:55:28.974Z,3.40
2023-03-10T06:56:28.961Z,3.40
2023-03-10T06:57:28.974Z,5.20
2023-03-10T06:58:28.958Z,3.00
2023-03-10T06:59:28.935Z,2.20
2023-03-10T07:00:28.958Z,2.60
2023-03-10T07:01:29.022Z,4.00
2023-03-10T07:02:28.910Z,2.20
2023-03-10T07:03:28.919Z,4.00
2023-03-10T07:04:28.923Z,3.60
2023-03-10T07:05:28.891Z,3.50
2023-03-10T07:06:28.861Z,3.10
2023-03-10T07:07:28.878Z,4.60
2023-03-10T07:08:28.849Z,2.60
2023-03-10T07:09:28.831Z,3.70
2023-03-10T07:10:28.850Z,3.00
2023-03-10T07:11:28.827Z,3.20
2023-03-10T07:12:28.816Z,4.00
2023-03-10T07:13:28.797Z,2.10
2023-03-10T07:14:28.776Z,3.00
2023-03-10T07:15:28.774Z,3.90
2023-03-10T07:16:28.805Z,2.00
2023-03-10T07:17:28.764Z,1.80
2023-03-10T07:18:28.734Z,2.50
2023-03-10T07:19:28.759Z,2.80
2023-03-10T07:20:28.736Z,3.30
2023-03-10T07:21:28.721Z,3.90
2023-03-10T07:22:28.697Z,3.20
2023-03-10T07:23:28.692Z,3.50
2023-03-10T07:24:28.706Z,3.60
2023-03-10T07:25:28.673Z,3.90
2023-03-10T07:26:28.672Z,3.70
2023-03-10T07:27:28.670Z,2.40
2023-03-10T07:28:28.641Z,2.70
2023-03-10T07:29:28.658Z,2.40
2023-03-10T07:30:28.635Z,3.10
2023-03-10T07:31:28.647Z,3.30
2023-03-10T07:33:00.513Z,3.20
2023-03-10T07:33:28.607Z,3.60
2023-03-10T07:34:28.580Z,5.10
2023-03-10T07:35:28.625Z,3.20
2023-03-10T07:36:28.566Z,3.10
2023-03-10T07:37:28.549Z,5.20
2023-03-10T07:38:28.554Z,4.20
2023-03-10T07:39:28.535Z,3.70
2023-03-10T07:40:29.536Z,3.40
2023-03-10T07:41:29.521Z,3.30
2023-03-10T07:42:28.504Z,4.20
2023-03-10T07:43:28.515Z,3.90
2023-03-10T07:44:28.506Z,3.80
2023-03-10T07:45:28.469Z,4.00
2023-03-10T07:46:28.577Z,3.90
2023-03-10T07:47:28.462Z,3.20
2023-03-10T07:48:28.456Z,5.20
2023-03-10T07:49:29.449Z,3.20
2023-03-10T07:50:28.461Z,5.40
2023-03-10T07:51:28.458Z,3.70
2023-03-10T07:52:28.421Z,2.60
2023-03-10T07:53:28.399Z,4.10
2023-03-10T07:54:28.416Z,3.70
2023-03-10T07:55:28.386Z,5.10
2023-03-10T07:56:28.378Z,4.20
2023-03-10T07:57:28.362Z,3.60
2023-03-10T07:58:28.381Z,2.10
2023-03-10T07:59:28.343Z,3.50
2023-03-10T08:00:28.392Z,4.40
2023-03-10T08:01:28.324Z,5.80
2023-03-10T08:02:28.332Z,3.40
2023-03-10T08:03:28.372Z,3.20
2023-03-10T08:04:28.457Z,4.10
2023-03-10T08:05:28.282Z,4.10
2023-03-10T08:06:28.311Z,3.60
2023-03-10T08:07:28.258Z,4.40
2023-03-10T08:08:28.275Z,3.70
2023-03-10T08:09:28.287Z,4.50
2023-03-10T08:10:28.233Z,3.50
2023-03-10T08:11:28.224Z,2.60
2023-03-10T08:12:28.226Z,3.70
2023-03-10T08:13:28.235Z,2.20
2023-03-10T08:14:28.227Z,3.40
2023-03-10T08:15:28.188Z,3.20
2023-03-10T08:16:28.276Z,3.40
2023-03-10T08:17:28.163Z,1.90
2023-03-10T08:18:28.150Z,2.70
2023-03-10T08:19:28.164Z,3.00
2023-03-10T08:20:28.143Z,4.40
2023-03-10T08:21:28.129Z,2.80
2023-03-10T08:22:28.144Z,3.70
2023-03-10T08:23:28.130Z,3.70
2023-03-10T08:24:28.099Z,2.90
2023-03-10T08:25:28.084Z,3.40
2023-03-10T08:26:28.076Z,3.80
2023-03-10T08:27:29.224Z,4.50
2023-03-10T08:28:28.073Z,1.70
2023-03-10T08:29:28.040Z,2.80
2023-03-10T08:30:28.035Z,0.80
2023-03-10T08:31:28.095Z,4.40
2023-03-10T08:32:28.055Z,8.20
2023-03-10T08:33:28.011Z,9.40
2023-03-10T08:34:27.999Z,2.80
2023-03-10T08:35:27.979Z,5.00
2023-03-10T08:36:27.987Z,2.40
2023-03-10T08:37:27.972Z,3.90
2023-03-10T08:38:27.955Z,4.90
2023-03-10T08:39:27.946Z,5.60
2023-03-10T08:40:27.956Z,4.90
2023-03-10T08:41:27.931Z,7.40
2023-03-10T08:42:27.915Z,8.40
2023-03-10T08:43:27.909Z,6.50
2023-03-10T08:44:27.895Z,9.60
2023-03-10T08:45:27.913Z,6.10
2023-03-10T08:46:27.907Z,30.10
2023-03-10T08:47:30.434Z,14.20
2023-03-10T08:48:28.865Z,6.20
2023-03-10T08:49:27.854Z,14.60
2023-03-10T08:50:27.851Z,8.00
2023-03-10T08:51:27.847Z,12.20
2023-03-10T08:52:27.845Z,13.80
2023-03-10T08:53:27.818Z,11.50
2023-03-10T08:54:27.799Z,14.90
2023-03-10T08:55:27.796Z,7.80
2023-03-10T08:56:27.787Z,7.40
2023-03-10T08:57:27.797Z,6.00
2023-03-10T08:58:27.782Z,12.50
2023-03-10T08:59:27.784Z,6.00
2023-03-10T09:00:27.742Z,4.00
2023-03-10T09:01:27.733Z,5.50
2023-03-10T09:02:27.757Z,5.40
2023-03-10T09:03:30.302Z,3.70
2023-03-10T09:04:27.752Z,3.60
2023-03-10T09:05:27.694Z,4.10
2023-03-10T09:06:27.683Z,6.10
2023-03-10T09:07:27.714Z,7.00
2023-03-10T09:08:27.961Z,5.60
2023-03-10T09:09:28.693Z,6.90
2023-03-10T09:10:27.640Z,4.60
2023-03-10T09:11:27.676Z,4.40
2023-03-10T09:12:33.533Z,3.20
2023-03-10T09:13:29.618Z,4.30
2023-03-10T09:14:27.621Z,3.00
2023-03-10T09:15:27.618Z,4.20
2023-03-10T09:16:27.618Z,5.80
2023-03-10T09:17:27.606Z,6.20
2023-03-10T09:18:27.573Z,7.20
2023-03-10T09:19:27.567Z,12.30
2023-03-10T09:20:29.396Z,11.30
2023-03-10T09:21:29.427Z,13.70
2023-03-10T09:22:27.554Z,5.80
2023-03-10T09:23:27.526Z,4.00
2023-03-10T09:24:27.535Z,8.30
2023-03-10T09:25:27.500Z,7.10
2023-03-10T09:26:27.486Z,9.20
2023-03-10T09:27:27.481Z,3.20
2023-03-10T09:28:27.510Z,7.20
2023-03-10T09:29:42.022Z,16.20
2023-03-10T09:30:29.448Z,13.20
2023-03-10T09:31:27.460Z,3.40
2023-03-10T09:32:27.481Z,4.70
2023-03-10T09:33:27.447Z,5.90
2023-03-10T09:34:27.411Z,3.50
2023-03-10T09:35:27.464Z,3.60
2023-03-10T09:36:27.544Z,3.10
2023-03-10T09:37:27.404Z,1.90
2023-03-10T09:38:27.378Z,1.90
2023-03-10T09:39:27.379Z,4.30
2023-03-10T09:40:27.352Z,3.30
2023-03-10T09:41:27.373Z,2.30
2023-03-10T09:42:37.273Z,2.70
2023-03-10T09:43:28.329Z,3.20
2023-03-10T09:44:27.324Z,2.60
2023-03-10T09:45:27.417Z,1.20
2023-03-10T09:46:27.300Z,3.30
2023-03-10T09:47:27.285Z,2.60
2023-03-10T09:48:27.299Z,2.60
2023-03-10T09:49:27.255Z,3.50
2023-03-10T09:50:27.278Z,1.90
2023-03-10T09:51:27.264Z,2.30
2023-03-10T09:52:27.260Z,2.30
2023-03-10T09:53:27.255Z,4.50
2023-03-10T09:54:27.238Z,2.20
2023-03-10T09:55:27.212Z,3.40
2023-03-10T09:56:29.680Z,3.90
2023-03-10T09:57:27.198Z,16.20
2023-03-10T09:58:27.182Z,2.40
2023-03-10T09:59:27.185Z,2.70
2023-03-10T10:00:27.173Z,1.80
2023-03-10T10:01:27.156Z,3.20
2023-03-10T10:02:27.134Z,2.90
2023-03-10T10:03:27.165Z,3.80
2023-03-10T10:04:27.192Z,4.60
2023-03-10T10:05:27.132Z,4.50
2023-03-10T10:06:28.644Z,3.10
2023-03-10T10:07:27.098Z,2.30
2023-03-10T10:08:28.868Z,3.70
2023-03-10T10:09:27.076Z,3.90
2023-03-10T10:10:27.092Z,2.20
2023-03-10T10:11:27.048Z,3.70
2023-03-10T10:12:27.066Z,4.00
2023-03-10T10:13:27.039Z,2.80
2023-03-10T10:14:30.574Z,3.30
2023-03-10T10:15:28.013Z,4.90
2023-03-10T10:16:34.247Z,3.20
2023-03-10T10:17:29.084Z,2.20
2023-03-10T10:18:27.151Z,3.40
2023-03-10T10:19:26.992Z,3.60
2023-03-10T10:20:26.965Z,2.60
2023-03-10T10:21:33.578Z,3.80
2023-03-10T10:22:27.959Z,3.70
2023-03-10T10:23:26.928Z,2.50
2023-03-10T10:24:26.923Z,4.20
2023-03-10T10:25:26.931Z,3.10
2023-03-10T10:26:26.904Z,3.80
2023-03-10T10:27:26.914Z,2.20
2023-03-10T10:28:26.890Z,3.90
2023-03-10T10:29:26.896Z,2.20
2023-03-10T10:30:27.473Z,3.90
2023-03-10T10:31:27.938Z,3.10
2023-03-10T10:32:26.868Z,3.10
2023-03-10T10:33:26.856Z,3.80
2023-03-10T10:34:26.840Z,4.80
2023-03-10T10:35:26.845Z,3.70
2023-03-10T10:36:26.817Z,4.90
2023-03-10T10:37:26.806Z,3.10
2023-03-10T10:38:26.803Z,5.40
2023-03-10T10:39:28.108Z,5.10
2023-03-10T10:40:26.770Z,2.00
2023-03-10T10:41:26.793Z,5.10
2023-03-10T10:42:26.751Z,2.50
2023-03-10T10:43:26.764Z,4.30
2023-03-10T10:44:26.743Z,2.80
2023-03-10T10:45:26.715Z,3.20
2023-03-10T10:46:26.762Z,2.50
2023-03-10T10:47:26.722Z,2.60
2023-03-10T10:48:26.696Z,3.90
2023-03-10T10:49:26.699Z,2.80
2023-03-10T10:50:26.688Z,2.70
2023-03-10T10:51:26.688Z,3.80
2023-03-10T10:52:26.691Z,2.80
2023-03-10T10:53:26.644Z,3.40
2023-03-10T10:54:26.638Z,1.60
2023-03-10T10:55:26.638Z,2.70
2023-03-10T10:56:26.600Z,1.40
2023-03-10T10:57:27.624Z,3.80
2023-03-10T10:58:26.630Z,1.50
2023-03-10T10:59:26.580Z,2.80
2023-03-10T11:00:26.577Z,2.00
2023-03-10T11:01:26.600Z,2.60
2023-03-10T11:02:26.585Z,1.70
2023-03-10T11:03:26.550Z,2.60
2023-03-10T11:04:26.569Z,2.00
2023-03-10T11:05:26.524Z,1.40
2023-03-10T11:06:26.538Z,1.60
2023-03-10T11:07:26.509Z,1.70
2023-03-10T11:08:26.489Z,2.10
2023-03-10T11:09:26.500Z,1.40
2023-03-10T11:10:26.502Z,0.90
2023-03-10T11:11:26.483Z,1.10
2023-03-10T11:12:26.464Z,1.50
2023-03-10T11:13:26.447Z,0.70
2023-03-10T11:14:26.441Z,3.40
2023-03-10T11:15:26.551Z,1.00
2023-03-10T11:16:26.413Z,4.10
2023-03-10T11:17:26.427Z,1.80
2023-03-10T11:18:26.418Z,1.90
2023-03-10T11:19:26.403Z,1.50
2023-03-10T11:20:26.411Z,1.80
2023-03-10T11:21:26.363Z,1.40
2023-03-10T11:22:26.355Z,1.30
2023-03-10T11:23:26.341Z,1.70
2023-03-10T11:24:26.339Z,1.00
2023-03-10T11:25:26.352Z,2.30
2023-03-10T11:26:26.323Z,0.80
2023-03-10T11:27:26.304Z,1.60
2023-03-10T11:28:26.292Z,2.30
2023-03-10T11:29:26.389Z,1.60
2023-03-10T11:30:26.290Z,1.60
2023-03-10T11:31:26.394Z,2.90
2023-03-10T11:32:26.280Z,2.60
2023-03-10T11:33:26.295Z,3.40
2023-03-10T11:34:26.229Z,1.90
2023-03-10T11:35:26.227Z,1.60
2023-03-10T11:36:26.220Z,2.80
2023-03-10T11:37:26.227Z,2.10
2023-03-10T11:38:26.193Z,2.20
2023-03-10T11:39:26.189Z,3.30
2023-03-10T11:40:26.175Z,1.10
2023-03-10T11:41:26.171Z,0.80
2023-03-10T11:42:26.332Z,1.90
2023-03-10T11:43:27.155Z,3.40
2023-03-10T11:44:26.165Z,3.30
2023-03-10T11:45:26.126Z,2.40
2023-03-10T11:46:26.199Z,2.90
2023-03-10T11:47:26.106Z,2.90
2023-03-10T11:48:26.129Z,2.20
2023-03-10T11:49:26.100Z,2.70
2023-03-10T11:50:26.091Z,1.50
2023-03-10T11:51:26.071Z,3.60
2023-03-10T11:52:26.066Z,3.10
2023-03-10T11:53:26.041Z,3.50
2023-03-10T11:54:27.036Z,2.90
2023-03-10T11:55:26.022Z,2.80
2023-03-10T11:56:26.022Z,4.30
2023-03-10T11:57:26.012Z,4.10
2023-03-10T11:58:25.993Z,2.20
2023-03-10T11:59:26.002Z,1.80
2023-03-10T12:00:26.198Z,2.70
2023-03-10T12:01:26.985Z,2.00
2023-03-10T12:02:25.952Z,2.30
2023-03-10T12:03:26.006Z,4.40
2023-03-10T12:04:25.945Z,3.40
2023-03-10T12:05:25.967Z,1.20
2023-03-10T12:06:26.777Z,3.00
2023-03-10T12:07:25.919Z,3.00
2023-03-10T12:08:25.898Z,3.30
2023-03-10T12:09:25.869Z,3.70
2023-03-10T12:10:25.867Z,3.30
2023-03-10T12:11:25.872Z,3.50
2023-03-10T12:12:26.229Z,2.50
2023-03-10T12:13:26.849Z,2.10
2023-03-10T12:14:25.827Z,4.30
2023-03-10T12:15:25.822Z,3.60
2023-03-10T12:16:25.865Z,1.60
2023-03-10T12:17:25.834Z,2.30
2023-03-10T12:18:27.016Z,1.60
2023-03-10T12:19:26.782Z,2.30
2023-03-10T12:20:25.772Z,1.70
2023-03-10T12:21:25.799Z,1.00
2023-03-10T12:22:25.749Z,1.10
2023-03-10T12:23:25.732Z,1.80
2023-03-10T12:24:25.744Z,0.90
2023-03-10T12:25:25.731Z,0.90
2023-03-10T12:26:25.708Z,2.60
2023-03-10T12:27:25.698Z,2.60
2023-03-10T12:28:25.694Z,2.00
2023-03-10T12:29:25.676Z,1.40
2023-03-10T12:30:26.018Z,1.80
2023-03-10T12:31:26.736Z,2.60
2023-03-10T12:32:25.706Z,4.40
2023-03-10T12:33:25.642Z,2.50
2023-03-10T12:34:25.635Z,2.80
2023-03-10T12:35:25.630Z,1.10
2023-03-10T12:36:27.819Z,2.40
2023-03-10T12:37:26.635Z,1.40
2023-03-10T12:38:26.583Z,3.60
2023-03-10T12:39:25.585Z,1.80
2023-03-10T12:40:25.557Z,3.40
2023-03-10T12:41:25.567Z,4.40
2023-03-10T12:42:26.320Z,2.30
2023-03-10T12:43:26.544Z,2.70
2023-03-10T12:44:25.520Z,2.70
2023-03-10T12:45:26.515Z,3.40
2023-03-10T12:46:25.567Z,2.30
2023-03-10T12:47:25.505Z,1.80
2023-03-10T12:48:25.503Z,3.80
2023-03-10T12:49:25.495Z,5.60
2023-03-10T12:50:25.471Z,2.90
2023-03-10T12:51:25.480Z,3.20
2023-03-10T12:52:25.457Z,3.10
2023-03-10T12:53:25.460Z,3.00
2023-03-10T12:54:25.443Z,3.70
2023-03-10T12:55:25.436Z,4.70
2023-03-10T12:56:25.401Z,3.00
2023-03-10T12:57:25.399Z,3.60
2023-03-10T12:58:25.442Z,5.80
2023-03-10T12:59:25.374Z,2.40
2023-03-10T13:00:25.373Z,3.60
2023-03-10T13:01:25.371Z,2.20
2023-03-10T13:02:25.359Z,3.40
2023-03-10T13:03:25.357Z,2.20
2023-03-10T13:04:25.359Z,3.50
2023-03-10T13:05:25.325Z,2.90
2023-03-10T13:06:25.314Z,2.80
2023-03-10T13:07:25.302Z,2.50
2023-03-10T13:08:25.297Z,2.80
2023-03-10T13:09:25.308Z,3.70
2023-03-10T13:10:25.269Z,2.90
2023-03-10T13:11:25.274Z,2.50
2023-03-10T13:12:25.253Z,1.50
2023-03-10T13:13:26.235Z,2.40
2023-03-10T13:14:25.229Z,1.00
2023-03-10T13:15:25.244Z,2.20
2023-03-10T13:16:25.254Z,3.00
2023-03-10T13:17:25.239Z,2.50